Folla — LLPD — position and weather

sailwx.info

Track history (hours):
 
Tides and Currents Weather Stations Pressure Air Temp Water Temp Dewpoint Dewpoint Depression Visibility Wind Speed Wind Dir Waves Ship Positions

Folla

Last reported at 2015-Mar-29 17:26 UTC. Time now 2015-Mar-29 19:34 UTC.
Position N 67°51' E 014°41'.

Length 52 m; draft 5 m.

Type: Cargo ship. MMSI: 258253000.

Date/timePositionNaut miles runAvg speedWind from/ knotsBaromVisibWave heightAir tempDewpointWater temp
2015-Mar-29 17:26N 67°51' E 014°41'1011.3
2015-Mar-29 16:32N 67°42' E 014°29'1111.5
2015-Mar-29 15:33N 67°33' E 014°11'1010.3
2015-Mar-29 14:33N 67°25' E 013°55'7 6.9
2015-Mar-29 13:33N 67°21' E 014°10'7 6.6
2015-Mar-29 12:33N 67°17' E 014°24'0 0.0
2015-Mar-29 11:33N 67°17' E 014°24'0 0.0
2015-Mar-29 10:33N 67°17' E 014°24'1 0.7
2015-Mar-29 09:33N 67°18' E 014°23'1111.3
2015-Mar-29 08:33N 67°29' E 014°28'1110.8
2015-Mar-29 07:33N 67°40' E 014°30'147 6.6
2015-Mar-28 09:13N 69°34' E 018°46'710.8
2015-Mar-28 08:33N 69°40' E 018°58'1 0.8
2015-Mar-28 07:34N 69°41' E 018°59'181 7.2
2015-Mar-27 06:28N 67°27' E 013°27'1111.6
2015-Mar-27 05:33N 67°16' E 013°24'1211.9
2015-Mar-27 04:33N 67°04' E 013°22'1312.0
2015-Mar-27 03:30N 66°52' E 013°21'2811.7
2015-Mar-27 01:05N 66°25' E 012°59'7110.6
2015-Mar-26 18:21N 65°18' E 011°60'1011.7
2015-Mar-26 17:29N 65°09' E 011°50'1011.2
2015-Mar-26 16:34N 65°00' E 011°37'1111.3
2015-Mar-26 15:34N 64°53' E 011°17'8 8.2
2015-Mar-26 14:34N 64°46' E 011°05'12 0.4
2015-Mar-25 10:33N 64°36' E 011°21'1010.1
2015-Mar-25 09:34N 64°46' E 011°29'10 0.2
2015-Mar-23 11:30N 64°47' E 011°05'6 6.2
2015-Mar-23 10:34N 64°52' E 011°15'0 0.1
2015-Mar-23 09:34N 64°52' E 011°14'0 0.0
2015-Mar-23 08:34N 64°52' E 011°14'2 2.5
2015-Mar-23 07:34N 64°53' E 011°19'1110.8
2015-Mar-23 06:34N 65°00' E 011°38'1410.8
2015-Mar-23 05:18N 65°12' E 011°53'64 7.2
2015-Mar-22 20:31N 66°14' E 012°30'1410.5
2015-Mar-22 19:10N 66°23' E 012°58'24 8.3
2015-Mar-22 16:15N 66°46' E 013°16'12 5.5
2015-Mar-22 14:06N 66°57' E 013°29'610.2
2015-Mar-22 13:33N 66°59' E 013°42'1110.5
2015-Mar-22 12:34N 67°07' E 014°00'1010.2
2015-Mar-22 11:34N 67°15' E 014°16'7 7.2
2015-Mar-22 10:34N 67°21' E 014°26'1010.4
2015-Mar-22 09:33N 67°31' E 014°38'9 9.4
2015-Mar-22 08:34N 67°40' E 014°42'14 7.1
2015-Mar-22 06:34N 67°54' E 014°45'1010.1
2015-Mar-22 05:33N 68°02' E 015°03'12210.0
2015-Mar-21 17:22N 69°34' E 018°45'8 9.4
2015-Mar-21 16:33N 69°40' E 018°58'1 0.9
2015-Mar-21 15:33N 69°41' E 018°59'2 2.4
2015-Mar-21 14:33N 69°38' E 018°57'115 6.3
2015-Mar-20 20:19N 68°20' E 015°02'811.0
2015-Mar-20 19:33N 68°13' E 014°52'6 6.4
2015-Mar-20 18:33N 68°14' E 014°35'1 0.7
2015-Mar-20 17:33N 68°13' E 014°34'1110.9
2015-Mar-20 16:34N 68°07' E 014°09'1111.3
2015-Mar-20 15:33N 68°04' E 013°40'3 1.4
2015-Mar-20 13:33N 68°06' E 013°36'7011.3
2015-Mar-20 07:23N 66°57' E 013°29'26 8.2
2015-Mar-20 04:10N 66°33' E 013°01'710.4
2015-Mar-20 03:29N 66°26' E 012°59'22 7.4
2015-Mar-20 00:33N 66°05' E 012°42'  
Track history (hours):
 
Tides and Currents Weather Stations Pressure Air Temp Water Temp Dewpoint Dewpoint Depression Visibility Wind Speed Wind Dir Waves Ship Positions

Folla

Last reported at 2015-Mar-29 17:26 UTC. Time now 2015-Mar-29 19:34 UTC.
Position N 67°51' E 014°41'.

Length 52 m; draft 5 m.

Type: Cargo ship. MMSI: 258253000.

Date/timePositionNaut miles runAvg speedWind from/ knotsBaromVisibWave heightAir tempDewpointWater temp
2015-Mar-29 17:26N 67°51' E 014°41'1011.3
2015-Mar-29 16:32N 67°42' E 014°29'1111.5
2015-Mar-29 15:33N 67°33' E 014°11'1010.3
2015-Mar-29 14:33N 67°25' E 013°55'7 6.9
2015-Mar-29 13:33N 67°21' E 014°10'7 6.6
2015-Mar-29 12:33N 67°17' E 014°24'0 0.0
2015-Mar-29 11:33N 67°17' E 014°24'0 0.0
2015-Mar-29 10:33N 67°17' E 014°24'1 0.7
2015-Mar-29 09:33N 67°18' E 014°23'1111.3
2015-Mar-29 08:33N 67°29' E 014°28'1110.8
2015-Mar-29 07:33N 67°40' E 014°30'147 6.6
2015-Mar-28 09:13N 69°34' E 018°46'710.8
2015-Mar-28 08:33N 69°40' E 018°58'1 0.8
2015-Mar-28 07:34N 69°41' E 018°59'181 7.2
2015-Mar-27 06:28N 67°27' E 013°27'1111.6
2015-Mar-27 05:33N 67°16' E 013°24'1211.9
2015-Mar-27 04:33N 67°04' E 013°22'1312.0
2015-Mar-27 03:30N 66°52' E 013°21'2811.7
2015-Mar-27 01:05N 66°25' E 012°59'7110.6
2015-Mar-26 18:21N 65°18' E 011°60'1011.7
2015-Mar-26 17:29N 65°09' E 011°50'1011.2
2015-Mar-26 16:34N 65°00' E 011°37'1111.3
2015-Mar-26 15:34N 64°53' E 011°17'8 8.2
2015-Mar-26 14:34N 64°46' E 011°05'12 0.4
2015-Mar-25 10:33N 64°36' E 011°21'1010.1
2015-Mar-25 09:34N 64°46' E 011°29'10 0.2
2015-Mar-23 11:30N 64°47' E 011°05'6 6.2
2015-Mar-23 10:34N 64°52' E 011°15'0 0.1
2015-Mar-23 09:34N 64°52' E 011°14'0 0.0
2015-Mar-23 08:34N 64°52' E 011°14'2 2.5
2015-Mar-23 07:34N 64°53' E 011°19'1110.8
2015-Mar-23 06:34N 65°00' E 011°38'1410.8
2015-Mar-23 05:18N 65°12' E 011°53'64 7.2
2015-Mar-22 20:31N 66°14' E 012°30'1410.5
2015-Mar-22 19:10N 66°23' E 012°58'24 8.3
2015-Mar-22 16:15N 66°46' E 013°16'12 5.5
2015-Mar-22 14:06N 66°57' E 013°29'610.2
2015-Mar-22 13:33N 66°59' E 013°42'1110.5
2015-Mar-22 12:34N 67°07' E 014°00'1010.2
2015-Mar-22 11:34N 67°15' E 014°16'7 7.2
2015-Mar-22 10:34N 67°21' E 014°26'1010.4
2015-Mar-22 09:33N 67°31' E 014°38'9 9.4
2015-Mar-22 08:34N 67°40' E 014°42'14 7.1
2015-Mar-22 06:34N 67°54' E 014°45'1010.1
2015-Mar-22 05:33N 68°02' E 015°03'12210.0
2015-Mar-21 17:22N 69°34' E 018°45'8 9.4
2015-Mar-21 16:33N 69°40' E 018°58'1 0.9
2015-Mar-21 15:33N 69°41' E 018°59'2 2.4
2015-Mar-21 14:33N 69°38' E 018°57'115 6.3
2015-Mar-20 20:19N 68°20' E 015°02'811.0
2015-Mar-20 19:33N 68°13' E 014°52'6 6.4
2015-Mar-20 18:33N 68°14' E 014°35'1 0.7
2015-Mar-20 17:33N 68°13' E 014°34'1110.9
2015-Mar-20 16:34N 68°07' E 014°09'1111.3
2015-Mar-20 15:33N 68°04' E 013°40'3 1.4
2015-Mar-20 13:33N 68°06' E 013°36'7011.3
2015-Mar-20 07:23N 66°57' E 013°29'26 8.2
2015-Mar-20 04:10N 66°33' E 013°01'710.4
2015-Mar-20 03:29N 66°26' E 012°59'22 7.4
2015-Mar-20 00:33N 66°05' E 012°42'  

Dump ship's entire track history